Time;durP1;ratioP1;P1;durP2;ratioP2;P2;SDS_P1;SDS_P2;PMS_P1;PMS_P2;Temp;Humidity;BMP_temperature;BMP_pressure;BME280_temperature;BME280_humidity;BME280_pressure;Samples;Min_cycle;Max_cycle;Signal;HPM_P1;HPM_P2
2022/06/07 00:02:02;;;;;;;17.10;6.00;;;;;;;17.98;100.00;97861.56;5047981;28;20044;-57
2022/06/07 00:04:27;;;;;;;16.08;5.65;;;;;;;17.78;100.00;97869.06;5049848;28;20101;-56
2022/06/07 00:06:52;;;;;;;15.85;5.70;;;;;;;17.52;100.00;97870.97;5048172;28;20572;-57
2022/06/07 00:09:18;;;;;;;18.65;5.93;;;;;;;17.71;100.00;97870.47;5047638;28;20067;-59
2022/06/07 00:11:43;;;;;;;16.25;5.78;;;;;;;17.48;100.00;97869.50;5047475;28;20040;-58
2022/06/07 00:14:08;;;;;;;14.30;5.25;;;;;;;17.72;100.00;97864.25;5049918;28;20113;-57
2022/06/07 00:16:34;;;;;;;14.15;5.43;;;;;;;17.63;100.00;97875.47;5049026;28;20087;-58
2022/06/07 00:18:59;;;;;;;17.65;5.63;;;;;;;18.09;100.00;97869.50;5052418;28;20188;-57
2022/06/07 00:21:29;;;;;;;14.70;5.22;;;;;;;18.34;100.00;97867.69;5050553;28;20040;-57
2022/06/07 00:23:54;;;;;;;15.52;6.07;;;;;;;18.06;100.00;97875.84;5049846;28;20116;-57
2022/06/07 00:26:20;;;;;;;15.77;6.10;;;;;;;17.77;100.00;97885.84;5047938;28;20127;-58
2022/06/07 00:28:45;;;;;;;17.25;6.35;;;;;;;17.66;100.00;97875.22;5049245;28;20036;-57
2022/06/07 00:31:11;;;;;;;20.02;6.30;;;;;;;17.62;100.00;97881.69;5049939;28;20868;-56
2022/06/07 00:33:36;;;;;;;20.20;6.38;;;;;;;17.66;100.00;97873.47;5048625;28;20017;-56
2022/06/07 00:36:02;;;;;;;15.88;5.85;;;;;;;17.52;100.00;97869.16;5048213;28;20067;-58
2022/06/07 00:38:27;;;;;;;17.88;6.20;;;;;;;17.60;100.00;97873.03;5048103;28;20059;-57
2022/06/07 00:40:53;;;;;;;15.57;6.20;;;;;;;17.52;100.00;97874.44;5047783;28;20037;-58
2022/06/07 00:43:22;;;;;;;13.15;5.88;;;;;;;17.38;100.00;97868.47;5049903;28;20032;-57
2022/06/07 00:45:47;;;;;;;20.05;6.43;;;;;;;17.65;100.00;97868.28;5048888;28;20025;-57
2022/06/07 00:48:13;;;;;;;15.98;6.15;;;;;;;17.78;100.00;97868.25;5048856;28;20029;-57
2022/06/07 00:50:49;;;;;;;18.63;6.30;;;;;;;17.46;100.00;97880.16;5048660;28;20045;-58
2022/06/07 00:53:23;;;;;;;18.60;6.15;;;;;;;17.71;100.00;97866.03;5052473;28;20035;-57
2022/06/07 00:55:50;;;;;;;18.67;5.85;;;;;;;17.59;100.00;97860.78;5049460;28;20079;-57
2022/06/07 00:58:16;;;;;;;18.98;5.80;;;;;;;17.35;100.00;97874.81;5048159;28;20032;-57
2022/06/07 01:00:43;;;;;;;19.08;6.30;;;;;;;17.20;100.00;97860.06;5047989;28;20491;-56
2022/06/07 01:03:08;;;;;;;12.55;5.15;;;;;;;17.64;100.00;97874.50;5051120;28;20601;-58
2022/06/07 01:05:33;;;;;;;15.48;5.90;;;;;;;17.23;100.00;97867.75;5047878;28;20064;-59
2022/06/07 01:10:45;;;;;;;15.52;6.00;;;;;;;17.25;100.00;97868.47;5046561;28;20105;-58
2022/06/07 01:13:12;;;;;;;16.15;6.32;;;;;;;17.13;100.00;97871.03;5048993;28;20056;-57
2022/06/07 01:15:38;;;;;;;15.07;5.50;;;;;;;17.74;100.00;97859.72;5047396;28;20068;-58
2022/06/07 01:18:04;;;;;;;17.52;6.00;;;;;;;17.17;100.00;97870.78;5050321;28;20617;-58
2022/06/07 01:20:30;;;;;;;14.55;5.85;;;;;;;17.19;100.00;97868.91;5045645;28;20475;-58
2022/06/07 01:22:56;;;;;;;11.63;5.35;;;;;;;17.52;100.00;97876.22;5050994;28;20017;-58
2022/06/07 01:25:22;;;;;;;16.27;6.05;;;;;;;17.26;100.00;97875.41;5047445;28;20031;-56
2022/06/07 01:27:47;;;;;;;13.95;5.88;;;;;;;17.48;100.00;97882.69;5047695;28;20111;-56
2022/06/07 01:30:13;;;;;;;14.48;6.15;;;;;;;17.51;100.00;97880.66;5047302;28;20028;-57
2022/06/07 01:32:39;;;;;;;15.40;5.97;;;;;;;17.32;100.00;97881.13;5050385;28;20399;-57
2022/06/07 01:35:05;;;;;;;14.73;6.30;;;;;;;17.46;100.00;97885.44;5047337;28;20029;-57
2022/06/07 01:37:31;;;;;;;13.35;5.97;;;;;;;17.42;100.00;97891.00;5049586;28;20017;-59
2022/06/07 01:42:40;;;;;;;14.43;6.28;;;;;;;17.42;100.00;97891.84;5051263;28;20449;-57
2022/06/07 01:45:06;;;;;;;14.45;5.38;;;;;;;17.60;100.00;97888.88;5053047;28;20025;-57
2022/06/07 01:47:32;;;;;;;18.80;6.50;;;;;;;17.35;100.00;97882.72;5049788;28;20044;-57
2022/06/07 01:49:58;;;;;;;19.77;6.70;;;;;;;17.31;100.00;97889.13;5051760;28;20128;-57
2022/06/07 01:52:27;;;;;;;16.27;6.47;;;;;;;17.17;100.00;97891.88;5050318;28;20593;-57
2022/06/07 01:54:52;;;;;;;13.88;5.65;;;;;;;17.44;100.00;97889.97;5049980;28;20445;-57
2022/06/07 01:57:19;;;;;;;20.20;6.65;;;;;;;17.27;100.00;97887.66;5052830;28;20045;-59
2022/06/07 01:59:45;;;;;;;13.20;6.03;;;;;;;17.32;100.00;97885.56;5050398;28;20035;-57
2022/06/07 02:02:10;;;;;;;14.80;6.00;;;;;;;17.30;100.00;97876.91;5051416;28;20032;-57
2022/06/07 02:04:38;;;;;;;13.38;5.85;;;;;;;17.18;100.00;97877.75;5054816;28;20032;-58
2022/06/07 02:07:05;;;;;;;15.63;6.10;;;;;;;17.02;100.00;97881.47;5050489;28;21077;-57
2022/06/07 02:09:31;;;;;;;16.33;6.15;;;;;;;17.14;100.00;97885.88;5048186;28;20506;-57
2022/06/07 02:11:56;;;;;;;16.92;6.00;;;;;;;17.04;100.00;97882.22;5048798;28;20040;-59
2022/06/07 02:14:22;;;;;;;13.93;6.10;;;;;;;16.96;100.00;97876.63;5052437;28;20052;-58
2022/06/07 02:16:47;;;;;;;13.45;6.20;;;;;;;17.13;100.00;97875.47;5051551;28;20075;-57
2022/06/07 02:19:13;;;;;;;13.65;5.90;;;;;;;17.07;100.00;97866.16;5053019;28;20078;-57
2022/06/07 02:21:40;;;;;;;14.20;5.90;;;;;;;17.26;100.00;97870.16;5050704;28;20040;-58
2022/06/07 02:24:07;;;;;;;14.43;5.93;;;;;;;17.56;100.00;97872.41;5053081;28;20490;-57
2022/06/07 02:26:37;;;;;;;14.10;5.88;;;;;;;17.57;100.00;97873.25;5051743;28;20090;-60
2022/06/07 02:29:09;;;;;;;14.20;5.82;;;;;;;17.29;100.00;97860.22;5051501;28;20514;-58
2022/06/07 02:31:38;;;;;;;13.90;5.53;;;;;;;17.51;100.00;97862.19;5050833;28;20674;-56
2022/06/07 02:34:06;;;;;;;12.80;5.55;;;;;;;17.20;100.00;97860.06;5050717;28;20035;-59
2022/06/07 02:36:33;;;;;;;13.48;6.28;;;;;;;16.76;100.00;97870.91;5051732;28;20089;-57
2022/06/07 02:39:00;;;;;;;18.05;6.50;;;;;;;17.20;100.00;97865.31;5052284;28;20056;-58
2022/06/07 02:41:27;;;;;;;16.55;6.43;;;;;;;17.17;100.00;97858.47;5049465;28;20151;-56
2022/06/07 02:43:54;;;;;;;16.33;6.43;;;;;;;17.26;100.00;97854.34;5052295;28;20037;-58
2022/06/07 02:46:20;;;;;;;13.23;6.10;;;;;;;17.05;100.00;97857.53;5052227;28;20038;-57
2022/06/07 02:48:45;;;;;;;15.85;6.25;;;;;;;17.24;100.00;97853.59;5051615;28;20528;-58
2022/06/07 02:51:11;;;;;;;14.80;5.88;;;;;;;17.09;100.00;97848.50;5050153;28;20165;-57
2022/06/07 02:53:36;;;;;;;15.05;6.05;;;;;;;17.20;100.00;97849.50;5051238;28;20027;-58
2022/06/07 02:56:03;;;;;;;15.48;6.10;;;;;;;17.22;100.00;97860.78;5050783;28;20061;-58
2022/06/07 02:58:29;;;;;;;16.88;6.13;;;;;;;17.34;100.00;97849.38;5051646;28;20024;-57
2022/06/07 03:00:58;;;;;;;11.68;5.05;;;;;;;17.37;100.00;97857.06;5050861;28;20029;-58
2022/06/07 03:03:23;;;;;;;16.38;5.88;;;;;;;17.50;100.00;97852.59;5050394;28;20059;-59
2022/06/07 03:05:49;;;;;;;13.77;5.80;;;;;;;17.63;100.00;97844.66;5051397;28;20056;-57
2022/06/07 03:08:17;;;;;;;13.88;5.90;;;;;;;17.49;100.00;97850.91;5051895;28;20062;-58
2022/06/07 03:10:42;;;;;;;15.85;5.70;;;;;;;17.72;100.00;97856.34;5049430;28;20039;-57
2022/06/07 03:13:08;;;;;;;13.18;5.40;;;;;;;17.50;100.00;97857.88;5050734;28;20866;-57
2022/06/07 03:15:33;;;;;;;15.27;5.85;;;;;;;17.38;100.00;97871.09;5050738;28;20041;-58
2022/06/07 03:17:59;;;;;;;15.25;5.55;;;;;;;17.09;100.00;97869.56;5050594;28;20735;-57
2022/06/07 03:20:24;;;;;;;13.60;5.38;;;;;;;17.86;100.00;97853.56;5049384;28;20036;-56
2022/06/07 03:22:49;;;;;;;15.73;5.80;;;;;;;17.03;100.00;97866.50;5049284;28;20561;-59
2022/06/07 03:25:15;;;;;;;13.43;5.63;;;;;;;16.89;100.00;97867.44;5050124;28;20052;-60
2022/06/07 03:27:40;;;;;;;13.45;5.38;;;;;;;17.10;100.00;97871.22;5050420;28;20024;-58
2022/06/07 03:30:09;;;;;;;17.23;6.65;;;;;;;17.19;100.00;97874.19;5049076;28;20036;-58
2022/06/07 03:32:35;;;;;;;12.40;5.20;;;;;;;17.27;100.00;97869.22;5050365;28;20047;-59
2022/06/07 03:35:00;;;;;;;15.88;5.75;;;;;;;17.18;100.00;97872.50;5051946;28;20037;-58
2022/06/07 03:37:26;;;;;;;12.52;5.43;;;;;;;17.91;100.00;97858.50;5049534;28;20458;-58
2022/06/07 03:39:51;;;;;;;14.93;5.75;;;;;;;16.92;100.00;97862.81;5049533;28;20033;-59
2022/06/07 03:42:18;;;;;;;13.43;5.80;;;;;;;16.73;100.00;97880.81;5049495;28;20428;-56
2022/06/07 03:44:48;;;;;;;13.85;5.60;;;;;;;16.98;100.00;97876.50;5049980;28;20024;-59
2022/06/07 03:47:17;;;;;;;13.98;5.95;;;;;;;16.93;100.00;97858.41;5049773;28;20086;-58
2022/06/07 03:49:42;;;;;;;13.10;5.65;;;;;;;17.53;100.00;97852.41;5047380;28;20128;-58
2022/06/07 03:52:08;;;;;;;13.80;5.45;;;;;;;17.53;100.00;97852.41;5048866;28;20037;-55
2022/06/07 03:54:33;;;;;;;14.65;5.40;;;;;;;17.52;100.00;97855.97;5051196;28;20021;-59
2022/06/07 03:56:59;;;;;;;13.07;6.20;;;;;;;17.46;100.00;97855.56;5048848;28;20045;-58
2022/06/07 03:59:27;;;;;;;13.82;5.57;;;;;;;17.18;100.00;97854.03;5049463;28;20032;-58
2022/06/07 04:01:52;;;;;;;14.98;5.80;;;;;;;17.54;100.00;97847.97;5049112;28;20037;-57
2022/06/07 04:04:18;;;;;;;12.55;5.22;;;;;;;17.96;100.00;97844.97;5048971;28;20028;-57
2022/06/07 04:08:10;;;;;;;10.02;4.78;;;;;;;17.90;100.00;97847.13;5047278;28;20036;-57
2022/06/07 04:09:39;;;;;;;15.80;5.78;;;;;;;17.73;100.00;97842.19;5049662;28;20324;-59
2022/06/07 04:12:15;;;;;;;13.85;5.43;;;;;;;17.73;100.00;97840.38;5051207;28;20033;-59
2022/06/07 04:14:43;;;;;;;12.05;5.30;;;;;;;17.74;100.00;97843.88;5050098;28;20028;-58
2022/06/07 04:17:10;;;;;;;13.90;5.22;;;;;;;17.80;100.00;97838.16;5049097;28;20032;-58
2022/06/07 04:19:37;;;;;;;12.60;5.07;;;;;;;17.75;100.00;97839.44;5049006;28;20032;-58
2022/06/07 04:22:04;;;;;;;20.27;6.13;;;;;;;17.67;100.00;97863.75;5047098;28;20562;-57
2022/06/07 04:24:30;;;;;;;13.45;5.22;;;;;;;17.51;100.00;97874.53;5049370;28;20577;-57
2022/06/07 04:26:56;;;;;;;12.88;5.32;;;;;;;17.45;100.00;97873.19;5050554;28;20063;-56
2022/06/07 04:29:22;;;;;;;15.27;6.07;;;;;;;17.13;100.00;97876.31;5049979;28;20024;-59
2022/06/07 04:31:48;;;;;;;12.23;5.53;;;;;;;17.27;100.00;97867.41;5048149;28;20119;-58
2022/06/07 04:34:13;;;;;;;13.85;5.47;;;;;;;17.79;100.00;97860.22;5048209;28;20440;-59
2022/06/07 04:36:39;;;;;;;13.65;5.65;;;;;;;17.39;100.00;97860.44;5050342;28;20038;-59
2022/06/07 04:39:06;;;;;;;14.63;5.72;;;;;;;17.48;100.00;97858.97;5047190;28;20588;-59
2022/06/07 04:41:32;;;;;;;12.07;5.10;;;;;;;18.24;100.00;97849.88;5048375;28;20029;-59
2022/06/07 04:43:58;;;;;;;15.68;5.82;;;;;;;18.20;100.00;97856.34;5048537;28;20032;-58
2022/06/07 04:46:26;;;;;;;14.23;5.90;;;;;;;17.88;100.00;97856.94;5048941;28;20102;-58
2022/06/07 04:48:52;;;;;;;15.38;5.90;;;;;;;18.17;100.00;97855.75;5049155;28;20086;-57
2022/06/07 04:51:20;;;;;;;15.93;5.95;;;;;;;18.28;100.00;97859.25;5047380;28;20044;-58
2022/06/07 04:53:49;;;;;;;13.02;5.32;;;;;;;18.56;100.00;97857.16;5049154;28;20024;-57
2022/06/07 04:56:17;;;;;;;15.02;5.68;;;;;;;17.89;100.00;97865.69;5048085;28;20037;-58
2022/06/07 04:58:44;;;;;;;15.82;5.53;;;;;;;18.38;100.00;97869.13;5048298;28;20021;-58
2022/06/07 05:01:22;;;;;;;14.32;5.43;;;;;;;18.96;100.00;97858.59;5048821;28;20063;-59
2022/06/07 05:03:48;;;;;;;10.95;4.68;;;;;;;19.68;100.00;97850.25;5049471;28;20059;-58
2022/06/07 05:06:24;;;;;;;11.85;5.00;;;;;;;19.43;100.00;97856.69;5048916;28;20406;-57
2022/06/07 05:08:53;;;;;;;14.30;5.13;;;;;;;19.23;100.00;97860.91;5050151;28;20035;-57
2022/06/07 05:11:19;;;;;;;13.00;4.60;;;;;;;19.96;100.00;97853.31;5047901;28;20067;-56
2022/06/07 05:13:44;;;;;;;14.05;5.35;;;;;;;19.20;100.00;97850.56;5049788;28;20582;-57
2022/06/07 05:16:10;;;;;;;11.48;4.90;;;;;;;19.48;100.00;97858.94;5050824;28;20116;-58
2022/06/07 05:18:35;;;;;;;16.10;5.45;;;;;;;19.15;100.00;97858.84;5046902;28;20036;-57
2022/06/07 05:21:08;;;;;;;13.50;4.88;;;;;;;19.19;100.00;97851.53;5046911;28;20032;-56
2022/06/07 05:23:34;;;;;;;13.73;4.90;;;;;;;19.05;100.00;97858.72;5048679;28;20592;-56
2022/06/07 05:26:13;;;;;;;14.57;5.05;;;;;;;18.96;100.00;97867.38;5049051;28;20817;-57
2022/06/07 05:28:41;;;;;;;12.30;5.10;;;;;;;18.78;100.00;97856.38;5047775;28;20334;-58
2022/06/07 05:31:06;;;;;;;13.50;4.82;;;;;;;19.15;100.00;97853.56;5046102;28;20032;-58
2022/06/07 05:33:32;;;;;;;11.15;4.70;;;;;;;18.96;100.00;97863.88;5048657;28;20029;-57
2022/06/07 05:35:58;;;;;;;12.43;4.95;;;;;;;19.53;100.00;97852.31;5046148;28;20037;-56
2022/06/07 05:38:24;;;;;;;11.98;5.00;;;;;;;19.13;100.00;97865.22;5047818;28;20060;-58
2022/06/07 05:40:51;;;;;;;15.38;5.07;;;;;;;19.17;100.00;97866.66;5045986;28;20045;-57
2022/06/07 05:43:16;;;;;;;11.52;4.50;;;;;;;19.15;100.00;97868.56;5049140;28;20143;-57
2022/06/07 05:45:45;;;;;;;19.15;5.00;;;;;;;19.53;100.00;97864.72;5049447;28;20147;-57
2022/06/07 05:48:11;;;;;;;16.95;5.35;;;;;;;19.27;100.00;97868.44;5047321;28;20036;-57
2022/06/07 05:50:36;;;;;;;13.90;4.72;;;;;;;19.48;100.00;97864.22;5046456;28;20639;-58
2022/06/07 05:53:02;;;;;;;16.35;4.85;;;;;;;19.07;100.00;97870.00;5047845;28;20079;-57
2022/06/07 05:55:27;;;;;;;9.48;4.28;;;;;;;19.12;100.00;97871.47;5050450;28;20334;-57
2022/06/07 05:57:54;;;;;;;15.02;4.75;;;;;;;19.60;100.00;97861.44;5048251;28;20658;-58
2022/06/07 06:00:20;;;;;;;12.50;4.32;;;;;;;19.82;100.00;97863.22;5046397;28;20021;-56
2022/06/07 06:02:46;;;;;;;10.48;4.00;;;;;;;19.96;100.00;97863.91;5049719;28;20040;-57
2022/06/07 06:05:11;;;;;;;12.95;4.38;;;;;;;20.12;100.00;97864.34;5045564;28;20021;-57
2022/06/07 06:10:19;;;;;;;11.18;4.03;;;;;;;20.49;100.00;97860.44;5048472;28;20021;-57
2022/06/07 06:10:24;;;;;;;11.88;3.97;;;;;;;20.38;100.00;97853.38;5047236;28;20032;-58
2022/06/07 06:12:49;;;;;;;10.75;4.18;;;;;;;20.66;100.00;97853.75;5049349;28;20029;-57
2022/06/07 06:15:15;;;;;;;11.32;3.88;;;;;;;20.22;100.00;97843.25;5048183;28;20021;-57
2022/06/07 06:17:40;;;;;;;16.05;4.38;;;;;;;20.47;100.00;97844.66;5046694;28;20179;-57
2022/06/07 06:20:09;;;;;;;10.65;4.03;;;;;;;20.70;100.00;97848.06;5045423;28;20417;-56
2022/06/07 06:22:35;;;;;;;10.02;3.78;;;;;;;20.79;100.00;97849.09;5046378;28;20040;-57
2022/06/07 06:25:00;;;;;;;10.52;3.83;;;;;;;21.66;100.00;97845.97;5045217;28;20039;-56
2022/06/07 06:27:26;;;;;;;12.00;4.07;;;;;;;23.16;100.00;97846.47;5048282;28;20071;-58
2022/06/07 06:29:51;;;;;;;11.82;3.80;;;;;;;22.91;100.00;97847.91;5050009;28;20082;-56
2022/06/07 06:32:16;;;;;;;9.30;3.60;;;;;;;22.55;100.00;97854.84;5051161;28;20025;-57
2022/06/07 06:34:42;;;;;;;9.88;3.60;;;;;;;22.13;100.00;97854.13;5052286;28;20525;-58
2022/06/07 06:37:07;;;;;;;9.13;3.50;;;;;;;22.13;100.00;97859.44;5051352;28;20149;-58
2022/06/07 06:39:33;;;;;;;9.57;3.50;;;;;;;21.95;100.00;97848.66;5050211;28;20029;-58
2022/06/07 06:41:58;;;;;;;9.93;3.40;;;;;;;21.06;100.00;97861.78;5051937;28;20332;-57
2022/06/07 06:44:24;;;;;;;8.05;3.38;;;;;;;21.48;100.00;97860.88;5050344;28;20031;-58
2022/06/07 06:46:49;;;;;;;10.32;3.78;;;;;;;21.17;100.00;97855.56;5050462;28;20160;-57
2022/06/07 06:49:15;;;;;;;7.57;3.20;;;;;;;21.40;100.00;97861.50;5049987;28;20048;-58
2022/06/07 06:51:42;;;;;;;9.23;3.20;;;;;;;21.86;100.00;97864.59;5050238;28;20041;-57
2022/06/07 06:54:11;;;;;;;7.20;2.70;;;;;;;21.58;100.00;97866.19;5053159;28;20041;-56
2022/06/07 06:56:36;;;;;;;10.88;3.17;;;;;;;21.46;100.00;97865.47;5049996;28;20041;-57
2022/06/07 06:59:02;;;;;;;8.48;3.03;;;;;;;20.89;100.00;97868.53;5050875;28;20024;-57
2022/06/07 07:01:31;;;;;;;13.05;3.28;;;;;;;20.68;100.00;97871.22;5050117;28;20506;-57
2022/06/07 07:04:02;;;;;;;11.82;3.15;;;;;;;20.89;100.00;97863.25;5051192;28;20115;-57
2022/06/07 07:06:28;;;;;;;8.77;2.88;;;;;;;20.94;100.00;97855.72;5051690;28;20184;-59
2022/06/07 07:08:57;;;;;;;10.93;3.00;;;;;;;21.99;100.00;97861.69;5049749;28;20115;-57
2022/06/07 07:11:35;;;;;;;9.57;2.75;;;;;;;21.86;100.00;97861.94;5050962;28;20573;-57
2022/06/07 07:14:00;;;;;;;10.50;3.13;;;;;;;21.61;100.00;97861.47;5052232;28;20052;-57
2022/06/07 07:16:29;;;;;;;8.38;2.70;;;;;;;21.78;100.00;97861.78;5050218;28;20041;-58
2022/06/07 07:18:55;;;;;;;8.60;2.60;;;;;;;21.07;100.00;97862.63;5048139;28;20550;-58
2022/06/07 07:21:25;;;;;;;8.05;2.70;;;;;;;20.77;100.00;97859.00;5052664;28;20114;-57
2022/06/07 07:23:50;;;;;;;18.88;2.92;;;;;;;21.88;100.00;97857.34;5049682;28;20032;-58
2022/06/07 07:26:22;;;;;;;8.27;2.60;;;;;;;22.68;100.00;97858.88;5050462;28;20048;-57
2022/06/07 07:28:52;;;;;;;;;;;;;;;22.05;100.00;97863.78;5049008;28;20028;-57
2022/06/07 07:31:24;;;;;;;7.95;2.60;;;;;;;21.53;100.00;97869.28;5050173;28;19920;-58
2022/06/07 07:33:50;;;;;;;9.18;2.17;;;;;;;22.07;100.00;97864.47;5048703;28;20783;-57
2022/06/07 07:36:15;;;;;;;10.30;2.85;;;;;;;22.71;100.00;97869.22;5048383;28;20047;-57
2022/06/07 07:38:41;;;;;;;11.32;2.90;;;;;;;21.86;100.00;97872.56;5049436;28;20021;-57
2022/06/07 07:41:21;;;;;;;10.68;3.00;;;;;;;21.61;100.00;97864.09;5049238;28;20489;-57
2022/06/07 07:43:48;;;;;;;12.25;2.45;;;;;;;22.08;100.00;97861.69;5049223;28;20425;-58
2022/06/07 07:46:14;;;;;;;7.30;2.47;;;;;;;22.39;100.00;97863.41;5049291;28;20032;-57
2022/06/07 07:48:39;;;;;;;10.45;3.00;;;;;;;23.13;100.00;97846.75;5049684;28;20036;-57
2022/06/07 07:51:07;;;;;;;8.68;2.22;;;;;;;22.87;100.00;97857.16;5048980;28;20052;-58
2022/06/07 07:53:33;;;;;;;10.20;2.72;;;;;;;23.60;94.95;97852.00;5048538;28;20086;-59
2022/06/07 07:55:59;;;;;;;6.82;2.28;;;;;;;23.90;96.23;97854.50;5049816;28;20124;-57
2022/06/07 07:58:24;;;;;;;7.15;2.33;;;;;;;23.30;100.00;97855.78;5050607;28;20100;-57
2022/06/07 08:00:50;;;;;;;7.38;2.05;;;;;;;22.83;96.52;97855.78;5049151;28;20092;-58
2022/06/07 08:03:18;;;;;;;7.43;2.33;;;;;;;22.43;100.00;97848.84;5051113;28;20116;-60
2022/06/07 08:05:44;;;;;;;7.63;2.50;;;;;;;23.33;97.32;97846.69;5050598;28;20033;-57
2022/06/07 08:08:11;;;;;;;8.40;2.40;;;;;;;22.83;98.34;97848.63;5050823;28;20031;-57
2022/06/07 08:10:37;;;;;;;8.15;2.45;;;;;;;23.14;97.33;97851.09;5048027;28;20052;-58
2022/06/07 08:13:03;;;;;;;7.68;2.13;;;;;;;22.93;99.68;97843.28;5049340;28;20390;-57
2022/06/07 08:15:31;;;;;;;8.15;2.50;;;;;;;23.34;98.42;97843.84;5049474;28;20032;-57
2022/06/07 08:17:57;;;;;;;7.15;2.22;;;;;;;22.94;100.00;97846.78;5051713;28;20732;-58
2022/06/07 08:20:24;;;;;;;7.13;2.22;;;;;;;22.20;100.00;97854.41;5047010;28;20447;-57
2022/06/07 08:22:50;;;;;;;9.82;2.72;;;;;;;22.23;100.00;97858.63;5049624;28;20025;-58
2022/06/07 08:25:16;;;;;;;10.07;2.45;;;;;;;22.31;100.00;97849.00;5048961;28;20036;-58
2022/06/07 08:27:42;;;;;;;10.63;2.70;;;;;;;22.73;98.68;97847.81;5054693;28;20029;-57
2022/06/07 08:30:08;;;;;;;10.82;3.22;;;;;;;22.34;100.00;97850.53;5049354;28;20505;-57
2022/06/07 08:32:33;;;;;;;7.20;2.20;;;;;;;22.39;97.55;97850.94;5049754;28;20418;-57
2022/06/07 08:37:44;;;;;;;8.90;2.42;;;;;;;23.38;93.63;97847.03;5048842;28;20040;-57
2022/06/07 08:40:27;;;;;;;9.27;2.63;;;;;;;23.17;88.88;97852.63;5044629;28;20024;-58
2022/06/07 08:42:58;;;;;;;6.72;2.00;;;;;;;22.98;84.36;97841.03;5047690;28;20033;-58
2022/06/07 08:45:28;;;;;;;8.05;2.28;;;;;;;23.35;86.55;97840.22;5046952;28;20037;-57
2022/06/07 08:47:58;;;;;;;7.72;2.40;;;;;;;23.44;86.21;97844.66;5047934;28;20016;-58
2022/06/07 08:50:43;;;;;;;6.90;2.15;;;;;;;23.13;81.47;97852.06;5047455;28;20024;-58
2022/06/07 08:53:15;;;;;;;6.22;2.15;;;;;;;23.36;81.55;97846.34;5048493;28;20029;-61
2022/06/07 08:56:02;;;;;;;6.80;1.92;;;;;;;23.34;83.01;97849.16;5051189;28;20041;-57
2022/06/07 08:58:43;;;;;;;8.68;2.08;;;;;;;24.40;78.73;97846.78;5046406;28;20032;-57
2022/06/07 09:01:33;;;;;;;7.00;2.15;;;;;;;24.24;73.02;97841.31;5047474;28;20115;-57
2022/06/07 09:04:04;;;;;;;8.20;2.38;;;;;;;23.76;84.85;97843.31;5048419;28;20036;-57
2022/06/07 09:06:33;;;;;;;6.45;2.00;;;;;;;23.95;77.93;97846.88;5044649;28;20124;-57
2022/06/07 09:08:59;;;;;;;7.32;2.30;;;;;;;23.90;72.53;97843.84;5046121;28;20025;-57
2022/06/07 09:14:29;;;;;;;8.70;2.45;;;;;;;23.94;77.04;97840.72;5048867;28;20120;-59
2022/06/07 09:16:56;;;;;;;7.07;2.22;;;;;;;23.70;75.45;97837.78;5048508;28;20037;-58
2022/06/07 09:19:28;;;;;;;5.47;1.90;;;;;;;24.07;70.55;97835.03;5050879;28;20028;-57
2022/06/07 09:21:58;;;;;;;6.90;2.03;;;;;;;24.23;74.33;97831.66;5049491;28;20246;-58
2022/06/07 09:24:59;;;;;;;8.43;2.45;;;;;;;23.61;73.97;97835.00;5049023;28;20895;-58
2022/06/07 09:27:27;;;;;;;8.73;2.30;;;;;;;24.40;70.57;97841.47;5017537;28;20186;-56
2022/06/07 09:29:56;;;;;;;7.25;2.35;;;;;;;24.29;76.61;97839.03;5046926;28;20040;-58
2022/06/07 09:32:27;;;;;;;7.35;2.30;;;;;;;23.92;74.45;97826.72;5048323;28;20098;-58
2022/06/07 09:34:56;;;;;;;7.95;2.45;;;;;;;23.51;77.49;97834.25;5049212;28;20020;-57
2022/06/07 09:37:41;;;;;;;9.23;2.47;;;;;;;24.57;72.88;97831.78;5046279;28;20133;-58
2022/06/07 09:40:31;;;;;;;8.40;2.60;;;;;;;24.17;70.70;97824.28;5044767;28;20501;-58
2022/06/07 09:43:02;;;;;;;6.38;2.20;;;;;;;23.90;65.56;97820.72;5041276;28;20661;-58
2022/06/07 09:45:39;;;;;;;7.40;2.40;;;;;;;24.82;65.40;97814.13;5050206;28;20053;-58
2022/06/07 09:48:41;;;;;;;5.85;2.10;;;;;;;25.26;60.54;97809.72;5047916;28;20538;-58
2022/06/07 09:51:07;;;;;;;7.20;2.20;;;;;;;26.56;58.36;97808.25;5010596;28;20564;-58
2022/06/07 09:53:34;;;;;;;7.22;2.60;;;;;;;26.43;59.12;97814.13;5048660;28;20494;-58
2022/06/07 09:56:18;;;;;;;5.85;2.15;;;;;;;25.81;56.15;97813.72;5047634;28;20045;-59
2022/06/07 09:59:16;;;;;;;6.95;2.22;;;;;;;26.18;55.63;97805.25;5046917;28;20102;-59
2022/06/07 10:02:13;;;;;;;8.25;2.30;;;;;;;27.59;55.71;97803.94;5047182;28;20058;-57
2022/06/07 10:04:56;;;;;;;7.57;2.45;;;;;;;26.43;57.95;97797.22;5052538;28;20082;-58
2022/06/07 10:07:55;;;;;;;6.75;2.20;;;;;;;25.76;54.60;97790.16;5050420;28;20974;-58
2022/06/07 10:10:42;;;;;;;11.63;2.35;;;;;;;26.70;52.31;97786.19;5046639;28;20719;-57
2022/06/07 10:13:17;;;;;;;5.65;2.05;;;;;;;26.24;52.17;97788.53;5049255;28;20060;-58
2022/06/07 10:15:52;;;;;;;6.07;1.80;;;;;;;26.60;51.38;97782.88;5052117;28;20592;-58
2022/06/07 10:18:48;;;;;;;6.32;2.13;;;;;;;28.03;48.66;97781.91;5050892;28;20040;-57
2022/06/07 10:21:40;;;;;;;4.88;1.80;;;;;;;27.66;47.42;97773.63;5052105;28;20041;-58
2022/06/07 10:24:24;;;;;;;4.55;1.98;;;;;;;26.56;50.80;97784.19;5052236;28;20094;-58
2022/06/07 10:27:12;;;;;;;5.35;2.03;;;;;;;26.01;49.56;97776.84;5051945;28;20561;-57
2022/06/07 10:30:01;;;;;;;5.68;1.95;;;;;;;25.87;50.26;97770.31;5052010;28;20035;-58
2022/06/07 10:32:41;;;;;;;5.15;1.90;;;;;;;26.18;51.75;97783.88;5050954;28;20541;-58
2022/06/07 10:35:30;;;;;;;4.45;1.75;;;;;;;25.58;50.79;97769.78;5051180;28;20029;-58
2022/06/07 10:38:14;;;;;;;7.20;2.15;;;;;;;25.48;52.56;97779.75;5049232;28;20024;-57
2022/06/07 10:40:52;;;;;;;5.57;2.13;;;;;;;25.15;53.53;97774.28;5048230;28;20041;-58
2022/06/07 10:43:28;;;;;;;6.43;1.73;;;;;;;25.13;54.82;97770.94;5049718;28;20624;-59
2022/06/07 10:46:00;;;;;;;6.10;1.85;;;;;;;25.44;55.69;97769.53;5050030;28;20047;-57
2022/06/07 10:48:40;;;;;;;6.43;2.25;;;;;;;26.18;56.15;97762.50;5052620;28;20083;-58
2022/06/07 10:54:05;;;;;;;5.20;1.90;;;;;;;24.25;56.34;97773.72;5050202;28;20735;-58
2022/06/07 10:56:41;;;;;;;6.40;2.22;;;;;;;24.42;59.76;97769.34;5048594;28;20093;-58
2022/06/07 10:59:20;;;;;;;6.90;2.22;;;;;;;25.00;58.15;97765.22;5049892;28;20024;-57
2022/06/07 11:01:52;;;;;;;5.55;1.90;;;;;;;25.47;56.19;97762.03;5049443;28;20138;-58
2022/06/07 11:10:14;;;;;;;8.90;2.15;;;;;;;24.78;57.35;97764.75;5048224;28;20106;-57
2022/06/07 11:12:49;;;;;;;7.15;2.13;;;;;;;24.98;56.49;97767.22;5053319;28;20071;-57
2022/06/07 11:15:20;;;;;;;8.57;2.13;;;;;;;25.08;54.36;97759.91;5053477;28;20112;-58
2022/06/07 11:17:47;;;;;;;4.97;1.90;;;;;;;25.38;57.16;97755.88;5052470;28;20032;-58
2022/06/07 11:20:27;;;;;;;10.30;2.10;;;;;;;27.35;51.95;97749.53;5049925;28;20747;-58
2022/06/07 11:23:13;;;;;;;5.75;1.90;;;;;;;27.49;48.81;97754.09;5052482;28;20044;-58
2022/06/07 11:25:57;;;;;;;7.40;1.80;;;;;;;25.07;54.28;97755.56;5049325;28;20518;-57
2022/06/07 11:28:28;;;;;;;5.78;1.90;;;;;;;25.09;53.04;97756.25;5049524;28;20524;-58
2022/06/07 11:31:01;;;;;;;5.10;1.87;;;;;;;25.59;54.75;97747.41;5048877;28;20112;-58
2022/06/07 11:33:38;;;;;;;6.15;2.10;;;;;;;25.57;56.88;97748.56;5049996;28;20029;-57
2022/06/07 11:36:13;;;;;;;5.53;1.95;;;;;;;25.04;56.09;97747.88;5050261;28;20041;-57
2022/06/07 11:38:54;;;;;;;7.45;2.67;;;;;;;25.19;59.28;97748.94;5048747;28;20036;-58
2022/06/07 11:41:37;;;;;;;8.95;2.38;;;;;;;25.17;57.28;97748.25;5048244;28;20543;-57
2022/06/07 11:44:10;;;;;;;5.63;2.00;;;;;;;24.91;53.04;97750.16;5049840;28;20033;-59
2022/06/07 11:46:35;;;;;;;5.97;2.00;;;;;;;24.68;54.18;97747.19;5049424;28;20568;-57
2022/06/07 11:49:22;;;;;;;7.18;2.20;;;;;;;24.96;58.95;97754.03;5050903;28;20032;-58
2022/06/07 11:51:55;;;;;;;6.57;2.08;;;;;;;24.90;58.83;97751.16;5049860;28;20043;-57
2022/06/07 11:54:54;;;;;;;8.40;2.38;;;;;;;24.93;59.03;97745.50;5047963;28;20056;-57